sensor_id;sensor_type;location;lat;lon;timestamp;P1;durP1;ratioP1;P2;durP2;ratioP2
41643;SDS011;44236;48.098;11.582;2023-04-01T00:01:38;3.58;;;0.63;;
41643;SDS011;44236;48.098;11.582;2023-04-01T00:04:03;0.77;;;0.50;;
41643;SDS011;44236;48.098;11.582;2023-04-01T00:06:29;1.50;;;0.52;;
41643;SDS011;44236;48.098;11.582;2023-04-01T00:08:55;2.03;;;0.63;;
41643;SDS011;44236;48.098;11.582;2023-04-01T00:11:21;2.25;;;0.60;;
41643;SDS011;44236;48.098;11.582;2023-04-01T00:13:48;1.20;;;0.60;;
41643;SDS011;44236;48.098;11.582;2023-04-01T00:16:14;2.60;;;0.60;;
41643;SDS011;44236;48.098;11.582;2023-04-01T00:18:40;1.17;;;0.60;;
41643;SDS011;44236;48.098;11.582;2023-04-01T00:21:06;0.30;;;0.30;;
41643;SDS011;44236;48.098;11.582;2023-04-01T00:23:32;2.30;;;0.60;;
41643;SDS011;44236;48.098;11.582;2023-04-01T00:26:02;2.35;;;1.05;;
41643;SDS011;44236;48.098;11.582;2023-04-01T00:28:28;2.65;;;0.50;;
41643;SDS011;44236;48.098;11.582;2023-04-01T00:30:54;0.93;;;0.55;;
41643;SDS011;44236;48.098;11.582;2023-04-01T00:33:20;1.27;;;0.50;;
41643;SDS011;44236;48.098;11.582;2023-04-01T00:35:45;0.82;;;0.30;;
41643;SDS011;44236;48.098;11.582;2023-04-01T00:38:11;0.40;;;0.40;;
41643;SDS011;44236;48.098;11.582;2023-04-01T00:40:38;0.55;;;0.30;;
41643;SDS011;44236;48.098;11.582;2023-04-01T00:43:18;0.40;;;0.40;;
41643;SDS011;44236;48.098;11.582;2023-04-01T00:45:45;0.77;;;0.50;;
41643;SDS011;44236;48.098;11.582;2023-04-01T00:50:51;1.15;;;0.52;;
41643;SDS011;44236;48.098;11.582;2023-04-01T00:53:21;0.98;;;0.50;;
41643;SDS011;44236;48.098;11.582;2023-04-01T00:55:56;0.68;;;0.45;;
41643;SDS011;44236;48.098;11.582;2023-04-01T00:58:32;1.58;;;0.50;;
41643;SDS011;44236;48.098;11.582;2023-04-01T01:01:01;1.30;;;0.50;;
41643;SDS011;44236;48.098;11.582;2023-04-01T01:03:27;0.95;;;0.40;;
41643;SDS011;44236;48.098;11.582;2023-04-01T01:11:19;2.27;;;0.70;;
41643;SDS011;44236;48.098;11.582;2023-04-01T01:13:59;1.98;;;0.70;;
41643;SDS011;44236;48.098;11.582;2023-04-01T01:16:35;0.80;;;0.50;;
41643;SDS011;44236;48.098;11.582;2023-04-01T01:19:09;0.70;;;0.40;;
41643;SDS011;44236;48.098;11.582;2023-04-01T01:24:55;0.30;;;0.30;;
41643;SDS011;44236;48.098;11.582;2023-04-01T01:27:54;1.05;;;0.52;;
41643;SDS011;44236;48.098;11.582;2023-04-01T01:31:11;1.07;;;0.53;;
41643;SDS011;44236;48.098;11.582;2023-04-01T01:36:44;0.85;;;0.35;;
41643;SDS011;44236;48.098;11.582;2023-04-01T01:39:15;2.47;;;0.50;;
41643;SDS011;44236;48.098;11.582;2023-04-01T01:41:42;1.17;;;0.50;;
41643;SDS011;44236;48.098;11.582;2023-04-01T01:44:12;1.25;;;0.40;;
41643;SDS011;44236;48.098;11.582;2023-04-01T01:46:39;4.15;;;0.90;;
41643;SDS011;44236;48.098;11.582;2023-04-01T01:49:07;0.43;;;0.40;;
41643;SDS011;44236;48.098;11.582;2023-04-01T01:51:36;0.70;;;0.40;;
41643;SDS011;44236;48.098;11.582;2023-04-01T01:54:02;1.95;;;0.50;;
41643;SDS011;44236;48.098;11.582;2023-04-01T01:56:27;1.65;;;0.43;;
41643;SDS011;44236;48.098;11.582;2023-04-01T01:59:00;0.70;;;0.43;;
41643;SDS011;44236;48.098;11.582;2023-04-01T02:01:32;1.20;;;0.73;;
41643;SDS011;44236;48.098;11.582;2023-04-01T02:04:04;0.75;;;0.45;;
41643;SDS011;44236;48.098;11.582;2023-04-01T02:06:30;1.10;;;0.50;;
41643;SDS011;44236;48.098;11.582;2023-04-01T02:09:00;0.65;;;0.45;;
41643;SDS011;44236;48.098;11.582;2023-04-01T02:14:03;1.33;;;0.50;;
41643;SDS011;44236;48.098;11.582;2023-04-01T02:16:38;0.50;;;0.40;;
41643;SDS011;44236;48.098;11.582;2023-04-01T02:19:21;1.25;;;0.45;;
41643;SDS011;44236;48.098;11.582;2023-04-01T02:21:55;0.70;;;0.40;;
41643;SDS011;44236;48.098;11.582;2023-04-01T02:24:25;1.77;;;0.88;;
41643;SDS011;44236;48.098;11.582;2023-04-01T02:26:55;0.75;;;0.47;;
41643;SDS011;44236;48.098;11.582;2023-04-01T02:29:21;0.38;;;0.38;;
41643;SDS011;44236;48.098;11.582;2023-04-01T02:31:49;0.47;;;0.40;;
41643;SDS011;44236;48.098;11.582;2023-04-01T02:34:16;1.48;;;0.70;;
41643;SDS011;44236;48.098;11.582;2023-04-01T02:36:42;0.47;;;0.30;;
41643;SDS011;44236;48.098;11.582;2023-04-01T02:39:08;1.02;;;0.50;;
41643;SDS011;44236;48.098;11.582;2023-04-01T02:41:40;1.00;;;0.52;;
41643;SDS011;44236;48.098;11.582;2023-04-01T02:44:07;1.70;;;0.45;;
41643;SDS011;44236;48.098;11.582;2023-04-01T02:46:33;2.42;;;0.47;;
41643;SDS011;44236;48.098;11.582;2023-04-01T02:48:59;0.50;;;0.40;;
41643;SDS011;44236;48.098;11.582;2023-04-01T02:51:25;1.55;;;0.50;;
41643;SDS011;44236;48.098;11.582;2023-04-01T02:53:51;0.30;;;0.20;;
41643;SDS011;44236;48.098;11.582;2023-04-01T02:56:16;0.57;;;0.50;;
41643;SDS011;44236;48.098;11.582;2023-04-01T02:58:42;1.13;;;0.52;;
41643;SDS011;44236;48.098;11.582;2023-04-01T03:01:08;1.45;;;0.60;;
41643;SDS011;44236;48.098;11.582;2023-04-01T03:03:33;0.50;;;0.40;;
41643;SDS011;44236;48.098;11.582;2023-04-01T03:06:04;0.70;;;0.40;;
41643;SDS011;44236;48.098;11.582;2023-04-01T03:08:34;0.75;;;0.50;;
41643;SDS011;44236;48.098;11.582;2023-04-01T03:10:59;1.13;;;0.50;;
41643;SDS011;44236;48.098;11.582;2023-04-01T03:13:25;1.23;;;0.43;;
41643;SDS011;44236;48.098;11.582;2023-04-01T03:15:51;1.95;;;0.40;;
41643;SDS011;44236;48.098;11.582;2023-04-01T03:18:18;0.35;;;0.35;;
41643;SDS011;44236;48.098;11.582;2023-04-01T03:20:43;1.77;;;0.55;;
41643;SDS011;44236;48.098;11.582;2023-04-01T03:23:09;1.58;;;0.50;;
41643;SDS011;44236;48.098;11.582;2023-04-01T03:25:35;0.47;;;0.47;;
41643;SDS011;44236;48.098;11.582;2023-04-01T03:28:01;0.82;;;0.38;;
41643;SDS011;44236;48.098;11.582;2023-04-01T03:30:27;0.70;;;0.50;;
41643;SDS011;44236;48.098;11.582;2023-04-01T03:32:54;0.57;;;0.38;;
41643;SDS011;44236;48.098;11.582;2023-04-01T03:35:20;0.57;;;0.35;;
41643;SDS011;44236;48.098;11.582;2023-04-01T03:37:46;1.40;;;0.50;;
41643;SDS011;44236;48.098;11.582;2023-04-01T03:40:11;0.63;;;0.30;;
41643;SDS011;44236;48.098;11.582;2023-04-01T03:42:37;1.42;;;0.50;;
41643;SDS011;44236;48.098;11.582;2023-04-01T03:45:03;1.02;;;0.45;;
41643;SDS011;44236;48.098;11.582;2023-04-01T03:47:29;0.35;;;0.30;;
41643;SDS011;44236;48.098;11.582;2023-04-01T03:49:55;1.27;;;0.40;;
41643;SDS011;44236;48.098;11.582;2023-04-01T03:52:21;1.00;;;0.50;;
41643;SDS011;44236;48.098;11.582;2023-04-01T03:54:46;0.20;;;0.20;;
41643;SDS011;44236;48.098;11.582;2023-04-01T03:57:12;1.23;;;0.40;;
41643;SDS011;44236;48.098;11.582;2023-04-01T03:59:38;0.55;;;0.30;;
41643;SDS011;44236;48.098;11.582;2023-04-01T04:02:03;0.43;;;0.40;;
41643;SDS011;44236;48.098;11.582;2023-04-01T04:04:29;1.23;;;0.60;;
41643;SDS011;44236;48.098;11.582;2023-04-01T04:06:55;0.93;;;0.47;;
41643;SDS011;44236;48.098;11.582;2023-04-01T04:09:21;0.90;;;0.50;;
41643;SDS011;44236;48.098;11.582;2023-04-01T04:11:48;0.73;;;0.40;;
41643;SDS011;44236;48.098;11.582;2023-04-01T04:14:14;0.88;;;0.30;;
41643;SDS011;44236;48.098;11.582;2023-04-01T04:16:40;0.40;;;0.40;;
41643;SDS011;44236;48.098;11.582;2023-04-01T04:19:05;0.45;;;0.40;;
41643;SDS011;44236;48.098;11.582;2023-04-01T04:21:31;0.73;;;0.30;;
41643;SDS011;44236;48.098;11.582;2023-04-01T04:23:58;0.40;;;0.40;;
41643;SDS011;44236;48.098;11.582;2023-04-01T04:26:24;0.45;;;0.30;;
41643;SDS011;44236;48.098;11.582;2023-04-01T04:28:50;0.43;;;0.30;;
41643;SDS011;44236;48.098;11.582;2023-04-01T04:31:20;0.80;;;0.40;;
41643;SDS011;44236;48.098;11.582;2023-04-01T04:33:46;0.55;;;0.30;;
41643;SDS011;44236;48.098;11.582;2023-04-01T04:36:12;0.98;;;0.38;;
41643;SDS011;44236;48.098;11.582;2023-04-01T04:38:38;0.50;;;0.35;;
41643;SDS011;44236;48.098;11.582;2023-04-01T04:41:08;0.93;;;0.30;;
41643;SDS011;44236;48.098;11.582;2023-04-01T04:43:35;0.57;;;0.30;;
41643;SDS011;44236;48.098;11.582;2023-04-01T04:46:03;0.50;;;0.30;;
41643;SDS011;44236;48.098;11.582;2023-04-01T04:48:33;0.38;;;0.35;;
41643;SDS011;44236;48.098;11.582;2023-04-01T04:50:59;0.60;;;0.40;;
41643;SDS011;44236;48.098;11.582;2023-04-01T04:53:24;1.85;;;0.30;;
41643;SDS011;44236;48.098;11.582;2023-04-01T04:55:51;0.98;;;0.40;;
41643;SDS011;44236;48.098;11.582;2023-04-01T04:58:17;1.17;;;0.30;;
41643;SDS011;44236;48.098;11.582;2023-04-01T05:00:43;4.30;;;0.40;;
41643;SDS011;44236;48.098;11.582;2023-04-01T05:03:12;0.20;;;0.20;;
41643;SDS011;44236;48.098;11.582;2023-04-01T05:05:38;1.08;;;0.40;;
41643;SDS011;44236;48.098;11.582;2023-04-01T05:08:05;0.93;;;0.40;;
41643;SDS011;44236;48.098;11.582;2023-04-01T05:10:31;0.20;;;0.20;;
41643;SDS011;44236;48.098;11.582;2023-04-01T05:12:57;0.40;;;0.30;;
41643;SDS011;44236;48.098;11.582;2023-04-01T05:15:23;0.30;;;0.30;;
41643;SDS011;44236;48.098;11.582;2023-04-01T05:17:49;1.27;;;0.28;;
41643;SDS011;44236;48.098;11.582;2023-04-01T05:20:15;1.20;;;0.30;;
41643;SDS011;44236;48.098;11.582;2023-04-01T05:22:41;1.08;;;0.32;;
41643;SDS011;44236;48.098;11.582;2023-04-01T05:25:07;0.25;;;0.20;;
41643;SDS011;44236;48.098;11.582;2023-04-01T05:27:33;1.25;;;0.40;;
41643;SDS011;44236;48.098;11.582;2023-04-01T05:29:59;3.85;;;0.47;;
41643;SDS011;44236;48.098;11.582;2023-04-01T05:32:25;0.30;;;0.20;;
41643;SDS011;44236;48.098;11.582;2023-04-01T05:34:51;0.47;;;0.25;;
41643;SDS011;44236;48.098;11.582;2023-04-01T05:37:17;1.65;;;0.35;;
41643;SDS011;44236;48.098;11.582;2023-04-01T05:39:43;4.13;;;0.52;;
41643;SDS011;44236;48.098;11.582;2023-04-01T05:42:09;0.55;;;0.32;;
41643;SDS011;44236;48.098;11.582;2023-04-01T05:44:35;0.63;;;0.50;;
41643;SDS011;44236;48.098;11.582;2023-04-01T05:47:01;0.20;;;0.20;;
41643;SDS011;44236;48.098;11.582;2023-04-01T05:49:28;0.30;;;0.30;;
41643;SDS011;44236;48.098;11.582;2023-04-01T05:51:54;0.65;;;0.30;;
41643;SDS011;44236;48.098;11.582;2023-04-01T05:54:20;0.88;;;0.30;;
41643;SDS011;44236;48.098;11.582;2023-04-01T05:56:46;1.85;;;0.50;;
41643;SDS011;44236;48.098;11.582;2023-04-01T05:59:11;4.15;;;0.55;;
41643;SDS011;44236;48.098;11.582;2023-04-01T06:01:38;1.88;;;0.40;;
41643;SDS011;44236;48.098;11.582;2023-04-01T06:04:03;2.05;;;0.50;;
41643;SDS011;44236;48.098;11.582;2023-04-01T06:06:30;4.55;;;0.77;;
41643;SDS011;44236;48.098;11.582;2023-04-01T06:09:15;1.73;;;0.60;;
41643;SDS011;44236;48.098;11.582;2023-04-01T06:15:23;0.38;;;0.38;;
41643;SDS011;44236;48.098;11.582;2023-04-01T06:20:47;0.60;;;0.30;;
41643;SDS011;44236;48.098;11.582;2023-04-01T06:26:24;2.05;;;0.40;;
41643;SDS011;44236;48.098;11.582;2023-04-01T06:32:10;3.13;;;0.50;;
41643;SDS011;44236;48.098;11.582;2023-04-01T06:35:02;4.93;;;0.60;;
41643;SDS011;44236;48.098;11.582;2023-04-01T06:46:08;3.47;;;0.70;;
41643;SDS011;44236;48.098;11.582;2023-04-01T06:48:53;3.50;;;0.90;;
41643;SDS011;44236;48.098;11.582;2023-04-01T06:56:49;2.42;;;0.70;;
41643;SDS011;44236;48.098;11.582;2023-04-01T06:59:21;1.92;;;0.65;;
41643;SDS011;44236;48.098;11.582;2023-04-01T07:01:54;0.30;;;0.30;;
41643;SDS011;44236;48.098;11.582;2023-04-01T07:07:08;0.80;;;0.50;;
41643;SDS011;44236;48.098;11.582;2023-04-01T07:10:20;0.80;;;0.32;;
41643;SDS011;44236;48.098;11.582;2023-04-01T07:12:54;1.50;;;0.50;;
41643;SDS011;44236;48.098;11.582;2023-04-01T07:15:24;2.05;;;0.40;;
41643;SDS011;44236;48.098;11.582;2023-04-01T07:20:57;1.63;;;0.60;;
41643;SDS011;44236;48.098;11.582;2023-04-01T07:23:32;2.05;;;0.57;;
41643;SDS011;44236;48.098;11.582;2023-04-01T07:26:06;2.75;;;0.63;;
41643;SDS011;44236;48.098;11.582;2023-04-01T07:28:47;2.58;;;1.15;;
41643;SDS011;44236;48.098;11.582;2023-04-01T07:31:23;3.20;;;1.02;;
41643;SDS011;44236;48.098;11.582;2023-04-01T07:34:12;8.38;;;3.08;;
41643;SDS011;44236;48.098;11.582;2023-04-01T07:42:35;10.82;;;2.45;;
41643;SDS011;44236;48.098;11.582;2023-04-01T07:45:20;12.27;;;2.65;;
41643;SDS011;44236;48.098;11.582;2023-04-01T07:51:03;13.77;;;2.97;;
41643;SDS011;44236;48.098;11.582;2023-04-01T07:56:18;9.85;;;2.13;;
41643;SDS011;44236;48.098;11.582;2023-04-01T07:59:33;11.70;;;3.65;;
41643;SDS011;44236;48.098;11.582;2023-04-01T08:07:36;4.18;;;1.13;;
41643;SDS011;44236;48.098;11.582;2023-04-01T08:13:15;5.40;;;0.85;;
41643;SDS011;44236;48.098;11.582;2023-04-01T08:15:57;3.55;;;1.00;;
41643;SDS011;44236;48.098;11.582;2023-04-01T08:21:03;4.28;;;1.13;;
41643;SDS011;44236;48.098;11.582;2023-04-01T08:23:40;4.72;;;0.98;;
41643;SDS011;44236;48.098;11.582;2023-04-01T08:31:22;4.30;;;0.95;;
41643;SDS011;44236;48.098;11.582;2023-04-01T08:33:55;4.25;;;0.90;;
41643;SDS011;44236;48.098;11.582;2023-04-01T08:36:28;2.00;;;0.70;;
41643;SDS011;44236;48.098;11.582;2023-04-01T08:38:59;7.43;;;1.02;;
41643;SDS011;44236;48.098;11.582;2023-04-01T08:41:40;3.50;;;1.08;;
41643;SDS011;44236;48.098;11.582;2023-04-01T08:59:02;6.22;;;1.48;;
41643;SDS011;44236;48.098;11.582;2023-04-01T09:10:42;3.00;;;1.30;;
41643;SDS011;44236;48.098;11.582;2023-04-01T09:24:46;3.65;;;0.80;;
41643;SDS011;44236;48.098;11.582;2023-04-01T09:27:37;3.42;;;0.98;;
41643;SDS011;44236;48.098;11.582;2023-04-01T09:35:56;6.38;;;0.93;;
41643;SDS011;44236;48.098;11.582;2023-04-01T09:38:29;8.57;;;1.40;;
41643;SDS011;44236;48.098;11.582;2023-04-01T09:43:58;9.18;;;1.70;;
41643;SDS011;44236;48.098;11.582;2023-04-01T09:47:07;12.82;;;1.90;;
41643;SDS011;44236;48.098;11.582;2023-04-01T09:58:38;13.65;;;2.67;;
41643;SDS011;44236;48.098;11.582;2023-04-01T10:01:34;15.90;;;3.05;;
41643;SDS011;44236;48.098;11.582;2023-04-01T10:07:45;21.30;;;4.63;;
41643;SDS011;44236;48.098;11.582;2023-04-01T10:21:20;19.50;;;4.45;;
41643;SDS011;44236;48.098;11.582;2023-04-01T11:32:52;7.13;;;1.88;;
41643;SDS011;44236;48.098;11.582;2023-04-01T11:35:39;7.97;;;2.10;;
41643;SDS011;44236;48.098;11.582;2023-04-01T11:38:30;13.52;;;3.22;;
41643;SDS011;44236;48.098;11.582;2023-04-01T11:41:32;8.60;;;2.10;;
41643;SDS011;44236;48.098;11.582;2023-04-01T11:44:26;7.93;;;2.15;;
41643;SDS011;44236;48.098;11.582;2023-04-01T11:49:49;6.82;;;1.85;;
41643;SDS011;44236;48.098;11.582;2023-04-01T11:52:22;7.03;;;2.15;;
41643;SDS011;44236;48.098;11.582;2023-04-01T12:01:04;6.78;;;1.50;;
41643;SDS011;44236;48.098;11.582;2023-04-01T12:06:38;21.50;;;3.25;;
41643;SDS011;44236;48.098;11.582;2023-04-01T12:12:01;15.02;;;2.33;;
41643;SDS011;44236;48.098;11.582;2023-04-01T12:23:09;7.55;;;1.70;;
41643;SDS011;44236;48.098;11.582;2023-04-01T12:28:43;3.50;;;1.38;;
41643;SDS011;44236;48.098;11.582;2023-04-01T12:31:31;9.30;;;1.40;;
41643;SDS011;44236;48.098;11.582;2023-04-01T12:53:07;6.70;;;1.08;;
41643;SDS011;44236;48.098;11.582;2023-04-01T12:55:43;4.57;;;1.52;;
41643;SDS011;44236;48.098;11.582;2023-04-01T12:58:44;4.70;;;1.52;;
41643;SDS011;44236;48.098;11.582;2023-04-01T13:15:24;4.88;;;0.90;;
41643;SDS011;44236;48.098;11.582;2023-04-01T13:23:09;4.45;;;1.00;;
41643;SDS011;44236;48.098;11.582;2023-04-01T13:25:58;1.92;;;0.70;;
41643;SDS011;44236;48.098;11.582;2023-04-01T13:28:34;3.95;;;0.93;;
41643;SDS011;44236;48.098;11.582;2023-04-01T13:31:23;2.92;;;0.90;;
41643;SDS011;44236;48.098;11.582;2023-04-01T13:36:52;1.90;;;0.70;;
41643;SDS011;44236;48.098;11.582;2023-04-01T13:42:57;3.30;;;1.10;;
41643;SDS011;44236;48.098;11.582;2023-04-01T13:51:34;4.13;;;1.02;;
41643;SDS011;44236;48.098;11.582;2023-04-01T13:59:53;3.25;;;0.80;;
41643;SDS011;44236;48.098;11.582;2023-04-01T14:02:33;4.30;;;0.70;;
41643;SDS011;44236;48.098;11.582;2023-04-01T14:38:28;2.53;;;0.60;;
41643;SDS011;44236;48.098;11.582;2023-04-01T14:48:31;0.98;;;0.73;;
41643;SDS011;44236;48.098;11.582;2023-04-01T14:53:44;2.80;;;0.50;;
41643;SDS011;44236;48.098;11.582;2023-04-01T14:56:41;1.25;;;0.63;;
41643;SDS011;44236;48.098;11.582;2023-04-01T15:02:08;0.70;;;0.40;;
41643;SDS011;44236;48.098;11.582;2023-04-01T15:05:49;1.90;;;0.70;;
41643;SDS011;44236;48.098;11.582;2023-04-01T15:13:14;3.08;;;0.40;;
41643;SDS011;44236;48.098;11.582;2023-04-01T15:19:14;1.38;;;0.60;;
41643;SDS011;44236;48.098;11.582;2023-04-01T15:27:02;3.88;;;0.60;;
41643;SDS011;44236;48.098;11.582;2023-04-01T15:29:55;2.58;;;0.68;;
41643;SDS011;44236;48.098;11.582;2023-04-01T15:38:28;1.92;;;0.73;;
41643;SDS011;44236;48.098;11.582;2023-04-01T15:41:03;2.22;;;0.65;;
41643;SDS011;44236;48.098;11.582;2023-04-01T15:43:51;7.35;;;0.40;;
41643;SDS011;44236;48.098;11.582;2023-04-01T15:54:04;3.13;;;0.60;;
41643;SDS011;44236;48.098;11.582;2023-04-01T15:56:54;1.63;;;0.60;;
41643;SDS011;44236;48.098;11.582;2023-04-01T16:02:29;1.92;;;0.70;;
41643;SDS011;44236;48.098;11.582;2023-04-01T16:08:06;2.50;;;0.60;;
41643;SDS011;44236;48.098;11.582;2023-04-01T16:22:13;2.97;;;0.63;;
41643;SDS011;44236;48.098;11.582;2023-04-01T16:24:48;1.40;;;0.45;;
41643;SDS011;44236;48.098;11.582;2023-04-01T16:30:24;2.63;;;0.50;;
41643;SDS011;44236;48.098;11.582;2023-04-01T16:33:21;3.65;;;0.50;;
41643;SDS011;44236;48.098;11.582;2023-04-01T16:41:36;3.47;;;0.60;;
41643;SDS011;44236;48.098;11.582;2023-04-01T16:44:25;3.22;;;0.70;;
41643;SDS011;44236;48.098;11.582;2023-04-01T16:50:05;1.65;;;0.70;;
41643;SDS011;44236;48.098;11.582;2023-04-01T16:55:17;5.65;;;0.88;;
41643;SDS011;44236;48.098;11.582;2023-04-01T17:02:58;8.65;;;0.90;;
41643;SDS011;44236;48.098;11.582;2023-04-01T17:05:42;6.07;;;1.10;;
41643;SDS011;44236;48.098;11.582;2023-04-01T17:11:16;15.88;;;1.70;;
41643;SDS011;44236;48.098;11.582;2023-04-01T17:14:07;11.95;;;1.50;;
41643;SDS011;44236;48.098;11.582;2023-04-01T17:35:56;16.77;;;1.70;;
41643;SDS011;44236;48.098;11.582;2023-04-01T17:44:16;5.45;;;1.10;;
41643;SDS011;44236;48.098;11.582;2023-04-01T17:49:36;7.45;;;1.33;;
41643;SDS011;44236;48.098;11.582;2023-04-01T18:01:00;3.55;;;0.70;;
41643;SDS011;44236;48.098;11.582;2023-04-01T18:06:19;3.03;;;1.13;;
41643;SDS011;44236;48.098;11.582;2023-04-01T18:09:09;3.80;;;0.77;;
41643;SDS011;44236;48.098;11.582;2023-04-01T18:14:45;3.60;;;0.70;;
41643;SDS011;44236;48.098;11.582;2023-04-01T18:17:38;2.78;;;0.80;;
41643;SDS011;44236;48.098;11.582;2023-04-01T18:23:02;1.77;;;0.90;;
41643;SDS011;44236;48.098;11.582;2023-04-01T18:25:38;2.78;;;0.63;;
41643;SDS011;44236;48.098;11.582;2023-04-01T18:28:24;2.15;;;0.75;;
41643;SDS011;44236;48.098;11.582;2023-04-01T18:36:32;3.50;;;0.70;;
41643;SDS011;44236;48.098;11.582;2023-04-01T18:39:14;3.10;;;0.60;;
41643;SDS011;44236;48.098;11.582;2023-04-01T18:50:26;1.10;;;0.55;;
41643;SDS011;44236;48.098;11.582;2023-04-01T18:53:12;2.55;;;0.60;;
41643;SDS011;44236;48.098;11.582;2023-04-01T18:55:52;3.05;;;0.57;;
41643;SDS011;44236;48.098;11.582;2023-04-01T19:00:55;9.10;;;0.47;;
41643;SDS011;44236;48.098;11.582;2023-04-01T19:06:41;2.90;;;0.47;;
41643;SDS011;44236;48.098;11.582;2023-04-01T19:09:27;4.38;;;0.57;;
41643;SDS011;44236;48.098;11.582;2023-04-01T19:20:29;5.55;;;1.17;;
41643;SDS011;44236;48.098;11.582;2023-04-01T19:25:27;3.03;;;0.45;;
41643;SDS011;44236;48.098;11.582;2023-04-01T19:47:30;4.20;;;1.10;;
41643;SDS011;44236;48.098;11.582;2023-04-01T19:50:08;4.20;;;0.80;;
41643;SDS011;44236;48.098;11.582;2023-04-01T19:52:52;6.05;;;0.95;;
41643;SDS011;44236;48.098;11.582;2023-04-01T19:55:37;2.08;;;0.90;;
41643;SDS011;44236;48.098;11.582;2023-04-01T19:58:32;2.97;;;1.58;;
41643;SDS011;44236;48.098;11.582;2023-04-01T20:01:05;12.73;;;0.90;;
41643;SDS011;44236;48.098;11.582;2023-04-01T20:03:43;4.57;;;0.82;;
41643;SDS011;44236;48.098;11.582;2023-04-01T20:06:31;9.43;;;1.55;;
41643;SDS011;44236;48.098;11.582;2023-04-01T20:14:54;20.27;;;1.85;;
41643;SDS011;44236;48.098;11.582;2023-04-01T20:17:41;14.32;;;1.40;;
41643;SDS011;44236;48.098;11.582;2023-04-01T20:27:50;8.77;;;1.20;;
41643;SDS011;44236;48.098;11.582;2023-04-01T20:39:11;12.18;;;1.23;;
41643;SDS011;44236;48.098;11.582;2023-04-01T20:49:51;29.55;;;2.30;;
41643;SDS011;44236;48.098;11.582;2023-04-01T20:52:41;13.88;;;2.00;;
41643;SDS011;44236;48.098;11.582;2023-04-01T21:14:47;6.40;;;1.15;;
41643;SDS011;44236;48.098;11.582;2023-04-01T21:17:36;2.65;;;0.57;;
41643;SDS011;44236;48.098;11.582;2023-04-01T21:20:21;4.93;;;1.10;;
41643;SDS011;44236;48.098;11.582;2023-04-01T21:22:54;3.10;;;0.70;;
41643;SDS011;44236;48.098;11.582;2023-04-01T21:58:27;2.83;;;0.85;;
41643;SDS011;44236;48.098;11.582;2023-04-01T22:09:00;2.83;;;1.00;;
41643;SDS011;44236;48.098;11.582;2023-04-01T22:11:42;2.58;;;0.70;;
41643;SDS011;44236;48.098;11.582;2023-04-01T22:17:05;2.20;;;0.80;;
41643;SDS011;44236;48.098;11.582;2023-04-01T22:32:45;1.58;;;0.80;;
41643;SDS011;44236;48.098;11.582;2023-04-01T22:40:46;6.57;;;1.35;;
41643;SDS011;44236;48.098;11.582;2023-04-01T22:43:37;2.90;;;0.90;;
41643;SDS011;44236;48.098;11.582;2023-04-01T22:46:09;5.45;;;0.75;;
41643;SDS011;44236;48.098;11.582;2023-04-01T22:51:46;4.60;;;1.05;;
41643;SDS011;44236;48.098;11.582;2023-04-01T22:54:24;2.90;;;1.10;;
41643;SDS011;44236;48.098;11.582;2023-04-01T22:56:58;1.90;;;1.00;;
41643;SDS011;44236;48.098;11.582;2023-04-01T23:02:30;5.40;;;0.90;;
41643;SDS011;44236;48.098;11.582;2023-04-01T23:05:02;1.17;;;0.50;;
41643;SDS011;44236;48.098;11.582;2023-04-01T23:10:00;1.27;;;0.65;;
41643;SDS011;44236;48.098;11.582;2023-04-01T23:12:27;2.03;;;0.47;;
41643;SDS011;44236;48.098;11.582;2023-04-01T23:14:56;3.47;;;0.80;;
41643;SDS011;44236;48.098;11.582;2023-04-01T23:22:54;3.15;;;1.02;;
41643;SDS011;44236;48.098;11.582;2023-04-01T23:31:01;3.70;;;0.73;;
41643;SDS011;44236;48.098;11.582;2023-04-01T23:33:28;2.88;;;0.80;;
41643;SDS011;44236;48.098;11.582;2023-04-01T23:35:59;7.15;;;0.90;;
41643;SDS011;44236;48.098;11.582;2023-04-01T23:38:32;1.75;;;0.45;;
41643;SDS011;44236;48.098;11.582;2023-04-01T23:41:01;1.40;;;0.57;;
41643;SDS011;44236;48.098;11.582;2023-04-01T23:43:29;1.52;;;0.60;;
41643;SDS011;44236;48.098;11.582;2023-04-01T23:45:56;2.20;;;0.70;;
41643;SDS011;44236;48.098;11.582;2023-04-01T23:48:34;3.80;;;0.60;;
41643;SDS011;44236;48.098;11.582;2023-04-01T23:51:02;2.08;;;0.90;;
41643;SDS011;44236;48.098;11.582;2023-04-01T23:53:34;1.95;;;0.63;;
41643;SDS011;44236;48.098;11.582;2023-04-01T23:56:01;0.63;;;0.40;;
41643;SDS011;44236;48.098;11.582;2023-04-01T23:58:38;1.48;;;0.60;;
